Time;durP1;ratioP1;P1;durP2;ratioP2;P2;SDS_P1;SDS_P2;PMS_P1;PMS_P2;Temp;Humidity;BMP_temperature;BMP_pressure;BME280_temperature;BME280_humidity;BME280_pressure;Samples;Min_cycle;Max_cycle;Signal;HPM_P1;HPM_P2
2022/11/12 00:02:10;;;;;;;3.60;1.70;;;9.10;92.80;;;;;;5049264;28;20044;-68
2022/11/12 00:04:54;;;;;;;3.67;1.70;;;9.10;93.10;;;;;;5050232;28;20047;-68
2022/11/12 00:07:38;;;;;;;3.00;1.65;;;9.00;93.20;;;;;;5050996;28;20046;-69
2022/11/12 00:10:23;;;;;;;2.75;1.52;;;9.00;93.30;;;;;;5048639;28;20091;-69
2022/11/12 00:13:07;;;;;;;3.30;1.98;;;9.00;93.40;;;;;;5054656;28;20651;-67
2022/11/12 00:15:52;;;;;;;3.10;2.00;;;9.00;93.40;;;;;;5047779;28;20117;-68
2022/11/12 00:18:37;;;;;;;5.25;2.78;;;9.00;93.30;;;;;;5052194;28;20039;-68
2022/11/12 00:21:21;;;;;;;2.95;2.10;;;8.90;93.20;;;;;;5048647;28;20040;-68
2022/11/12 00:24:05;;;;;;;3.95;2.45;;;8.80;93.20;;;;;;5050759;28;20419;-68
2022/11/12 00:26:49;;;;;;;3.50;2.22;;;8.80;93.30;;;;;;5050212;28;20139;-68
2022/11/12 00:29:33;;;;;;;3.83;1.95;;;8.70;93.40;;;;;;5049303;28;20109;-72
2022/11/12 00:32:18;;;;;;;3.42;2.00;;;8.70;93.30;;;;;;5046389;28;20127;-73
2022/11/12 00:35:04;;;;;;;5.65;2.53;;;8.60;93.00;;;;;;5052002;28;20174;-73
2022/11/12 00:37:53;;;;;;;5.38;2.67;;;8.50;92.50;;;;;;5045613;28;20063;-72
2022/11/12 00:40:38;;;;;;;5.57;2.42;;;8.40;92.30;;;;;;5054141;28;20082;-73
2022/11/12 00:43:23;;;;;;;2.40;1.70;;;8.30;92.60;;;;;;5054148;28;20090;-72
2022/11/12 00:46:08;;;;;;;5.07;1.70;;;8.30;93.10;;;;;;5051044;28;20067;-70
2022/11/12 00:48:52;;;;;;;3.90;2.40;;;8.30;93.60;;;;;;5052506;28;20530;-71
2022/11/12 00:51:36;;;;;;;4.05;1.92;;;8.30;93.90;;;;;;5046831;28;20140;-69
2022/11/12 00:54:20;;;;;;;3.28;1.92;;;8.30;94.10;;;;;;5048323;28;20048;-71
2022/11/12 00:57:04;;;;;;;5.32;2.40;;;8.40;94.20;;;;;;5049152;28;20040;-71
2022/11/12 00:59:49;;;;;;;3.70;1.77;;;8.40;94.20;;;;;;5057882;28;20042;-71
2022/11/12 01:02:34;;;;;;;4.18;1.85;;;8.40;94.20;;;;;;5047619;28;20063;-72
2022/11/12 01:05:19;;;;;;;2.67;1.40;;;8.50;94.20;;;;;;5051018;28;20054;-71
2022/11/12 01:08:03;;;;;;;2.67;1.67;;;8.50;94.20;;;;;;5048937;28;20083;-71
2022/11/12 01:10:47;;;;;;;4.07;1.92;;;8.50;94.20;;;;;;5048982;28;20512;-66
2022/11/12 01:13:32;;;;;;;4.35;1.95;;;8.50;94.10;;;;;;5045990;28;20152;-66
2022/11/12 01:16:19;;;;;;;2.47;1.80;;;8.50;94.10;;;;;;5047878;28;20055;-66
2022/11/12 01:19:07;;;;;;;4.10;2.10;;;8.50;94.20;;;;;;5051534;28;20066;-66
2022/11/12 01:21:51;;;;;;;4.28;1.80;;;8.50;94.20;;;;;;5053203;28;20056;-66
2022/11/12 01:24:35;;;;;;;4.07;1.75;;;8.50;94.20;;;;;;5048997;28;20130;-66
2022/11/12 01:27:20;;;;;;;4.63;1.55;;;8.50;94.20;;;;;;5053148;28;20829;-66
2022/11/12 01:30:05;;;;;;;5.18;2.15;;;8.50;94.20;;;;;;5046782;28;20126;-66
2022/11/12 01:32:49;;;;;;;3.95;1.98;;;8.50;94.20;;;;;;5043279;28;20567;-66
2022/11/12 01:35:34;;;;;;;5.53;1.77;;;8.40;94.20;;;;;;5049531;28;20040;-66
2022/11/12 01:38:18;;;;;;;4.05;1.55;;;8.50;94.20;;;;;;5053045;28;20574;-65
2022/11/12 01:41:03;;;;;;;3.00;1.63;;;8.50;94.30;;;;;;5051319;28;20043;-65
2022/11/12 01:44:11;;;;;;;3.80;1.70;;;8.50;94.30;;;;;;5046922;28;20106;-66
2022/11/12 01:47:25;;;;;;;3.40;1.85;;;8.50;94.30;;;;;;5051289;28;20077;-65
2022/11/12 01:50:29;;;;;;;3.78;1.75;;;8.50;94.30;;;;;;5045000;28;20603;-66
2022/11/12 01:53:14;;;;;;;3.20;2.08;;;8.50;94.40;;;;;;5047636;28;20043;-65
2022/11/12 01:56:01;;;;;;;4.68;1.58;;;8.40;94.30;;;;;;5048104;28;20873;-65
2022/11/12 01:58:48;;;;;;;3.78;2.05;;;8.50;94.50;;;;;;5048800;28;20043;-66
2022/11/12 02:01:33;;;;;;;;;;;8.40;94.40;;;;;;5049121;28;20043;-66
2022/11/12 02:04:18;;;;;;;4.85;1.88;;;8.40;94.40;;;;;;5056087;28;19966;-65
2022/11/12 02:07:04;;;;;;;3.53;1.75;;;8.40;94.40;;;;;;5048384;28;20919;-65
2022/11/12 02:09:49;;;;;;;2.72;1.60;;;8.40;94.40;;;;;;5049752;28;20083;-65
2022/11/12 02:15:38;;;;;;;3.05;2.00;;;8.30;94.10;;;;;;5056167;28;20052;-65
2022/11/12 02:18:22;;;;;;;2.97;1.52;;;8.20;93.60;;;;;;5049091;28;20051;-65
2022/11/12 02:21:08;;;;;;;6.57;2.00;;;8.10;93.20;;;;;;5049442;28;20048;-65
2022/11/12 02:24:01;;;;;;;3.33;2.40;;;8.00;92.80;;;;;;5048419;28;20082;-65
2022/11/12 02:26:51;;;;;;;3.58;1.63;;;7.90;92.70;;;;;;5050267;28;20159;-65
2022/11/12 02:29:45;;;;;;;2.58;1.70;;;7.80;92.60;;;;;;5050903;28;20086;-65
2022/11/12 02:32:29;;;;;;;3.13;1.80;;;7.80;92.60;;;;;;5044572;28;20040;-70
2022/11/12 02:35:14;;;;;;;5.03;1.80;;;7.70;92.70;;;;;;5054891;28;20067;-71
2022/11/12 02:37:59;;;;;;;2.03;1.70;;;7.60;92.70;;;;;;5054178;28;20067;-66
2022/11/12 02:40:43;;;;;;;3.25;1.75;;;7.50;92.50;;;;;;5052417;28;20571;-65
2022/11/12 02:43:27;;;;;;;2.83;1.88;;;7.50;92.60;;;;;;5045216;28;20043;-65
2022/11/12 02:46:13;;;;;;;2.38;1.80;;;7.40;92.90;;;;;;5048419;28;20573;-65
2022/11/12 02:48:57;;;;;;;1.98;1.38;;;7.40;93.40;;;;;;5046495;28;20043;-65
2022/11/12 02:51:41;;;;;;;2.10;1.50;;;7.50;93.80;;;;;;5047288;28;20708;-65
2022/11/12 02:54:25;;;;;;;1.95;1.40;;;7.50;94.20;;;;;;5051931;28;20217;-65
2022/11/12 02:57:10;;;;;;;2.05;1.60;;;7.50;94.40;;;;;;5048604;28;20741;-65
2022/11/12 02:59:54;;;;;;;3.45;2.10;;;7.50;94.30;;;;;;5049058;28;20051;-65
2022/11/12 03:02:41;;;;;;;5.30;2.03;;;7.50;94.00;;;;;;5045567;28;20048;-65
2022/11/12 03:05:30;;;;;;;3.17;1.70;;;7.40;93.50;;;;;;5045195;28;20318;-65
2022/11/12 03:08:15;;;;;;;3.53;1.73;;;7.40;93.10;;;;;;5049660;28;20103;-65
2022/11/12 03:11:06;;;;;;;3.08;2.20;;;7.30;92.80;;;;;;5046225;28;20131;-70
2022/11/12 03:13:50;;;;;;;3.88;2.00;;;7.20;92.80;;;;;;5055667;28;20118;-71
2022/11/12 03:16:34;;;;;;;3.17;1.40;;;7.10;92.70;;;;;;5052761;28;20118;-70
2022/11/12 03:19:18;;;;;;;4.35;1.60;;;7.10;92.90;;;;;;5046411;28;20086;-69
2022/11/12 03:22:02;;;;;;;3.33;1.90;;;7.00;92.90;;;;;;5048482;28;20221;-70
2022/11/12 03:24:46;;;;;;;2.90;1.70;;;7.00;92.90;;;;;;5048305;28;20056;-65
2022/11/12 03:27:31;;;;;;;2.83;1.88;;;7.00;93.00;;;;;;5044817;28;20075;-64
2022/11/12 03:30:15;;;;;;;3.47;1.58;;;7.00;93.20;;;;;;5054974;28;20650;-65
2022/11/12 03:32:59;;;;;;;3.47;1.60;;;6.90;93.20;;;;;;5052361;28;20527;-65
2022/11/12 03:35:44;;;;;;;2.58;1.55;;;6.90;93.30;;;;;;5045804;28;20152;-65
2022/11/12 03:38:28;;;;;;;2.55;1.73;;;6.80;93.40;;;;;;5048440;28;20082;-67
2022/11/12 03:41:12;;;;;;;3.10;1.60;;;6.90;93.60;;;;;;5047430;28;20077;-67
2022/11/12 03:43:56;;;;;;;1.95;1.30;;;6.80;93.80;;;;;;5051726;28;20044;-67
2022/11/12 03:46:41;;;;;;;3.72;1.67;;;6.80;94.00;;;;;;5051366;28;20540;-67
2022/11/12 03:49:25;;;;;;;4.78;1.60;;;6.80;94.30;;;;;;5053298;28;20064;-64
2022/11/12 03:52:10;;;;;;;5.22;1.58;;;6.90;94.40;;;;;;5053891;28;20082;-67
2022/11/12 03:54:54;;;;;;;2.15;1.60;;;6.90;94.50;;;;;;5049819;28;20056;-67
2022/11/12 03:57:39;;;;;;;3.17;1.60;;;6.90;94.60;;;;;;5050743;28;20047;-66
2022/11/12 04:00:25;;;;;;;3.00;1.70;;;6.90;94.60;;;;;;5050748;28;20035;-67
2022/11/12 04:03:09;;;;;;;2.75;1.77;;;6.90;94.70;;;;;;5047811;28;20151;-67
2022/11/12 04:08:57;;;;;;;4.18;1.60;;;6.80;94.80;;;;;;5054232;28;20051;-64
2022/11/12 04:11:41;;;;;;;4.70;1.73;;;6.80;94.80;;;;;;5048044;28;20052;-64
2022/11/12 04:14:25;;;;;;;4.32;1.63;;;6.80;94.60;;;;;;5052216;28;20643;-66
2022/11/12 04:23:15;;;;;;;2.47;1.40;;;6.80;95.10;;;;;;5046768;28;20071;-66
2022/11/12 04:32:06;;;;;;;4.82;2.28;;;6.60;93.90;;;;;;5054129;28;20051;-71
2022/11/12 04:34:51;;;;;;;3.22;1.58;;;6.60;94.10;;;;;;5050115;28;20052;-72
2022/11/12 04:37:45;;;;;;;3.58;1.83;;;6.60;94.40;;;;;;5048941;28;20601;-72
2022/11/12 04:46:37;;;;;;;3.20;2.10;;;6.60;94.70;;;;;;5049995;28;20582;-72
2022/11/12 04:49:21;;;;;;;3.58;1.98;;;6.60;94.40;;;;;;5050354;28;20067;-72
2022/11/12 04:52:05;;;;;;;3.58;2.17;;;6.50;94.30;;;;;;5048175;28;20051;-71
2022/11/12 04:54:49;;;;;;;3.42;1.88;;;6.60;94.00;;;;;;5052420;28;20544;-71
2022/11/12 04:57:34;;;;;;;2.67;1.95;;;6.50;93.90;;;;;;5049940;28;20606;-71
2022/11/12 05:00:18;;;;;;;4.80;2.40;;;6.40;93.70;;;;;;5047171;28;20396;-71
2022/11/12 05:03:02;;;;;;;4.75;2.10;;;6.40;93.70;;;;;;5047920;28;20044;-72
2022/11/12 05:05:47;;;;;;;4.65;2.58;;;6.30;93.90;;;;;;5056290;28;20105;-71
2022/11/12 05:08:31;;;;;;;3.15;2.30;;;6.30;93.70;;;;;;5055460;28;20047;-72
2022/11/12 05:11:15;;;;;;;3.17;2.22;;;6.30;93.70;;;;;;5051649;28;20044;-72
2022/11/12 05:13:59;;;;;;;3.70;2.25;;;6.20;93.50;;;;;;5052122;28;20570;-72
2022/11/12 05:16:44;;;;;;;4.28;2.22;;;6.20;94.00;;;;;;5051413;28;20413;-71
2022/11/12 05:19:28;;;;;;;3.97;3.13;;;6.10;94.00;;;;;;5049631;28;20143;-66
2022/11/12 05:22:13;;;;;;;2.88;1.90;;;6.10;93.70;;;;;;5044959;28;20156;-66
2022/11/12 05:24:58;;;;;;;4.88;2.30;;;6.10;93.60;;;;;;5052539;28;20808;-66
2022/11/12 05:27:42;;;;;;;4.53;2.47;;;6.10;93.70;;;;;;5051212;28;20572;-66
2022/11/12 05:30:27;;;;;;;6.95;2.55;;;6.00;93.40;;;;;;5044674;28;20086;-66
2022/11/12 05:33:11;;;;;;;4.88;2.30;;;6.00;93.40;;;;;;5049599;28;20056;-66
2022/11/12 05:35:56;;;;;;;3.13;1.90;;;6.00;93.60;;;;;;5046104;28;20158;-66
2022/11/12 05:38:40;;;;;;;2.72;1.80;;;6.00;93.80;;;;;;5046625;28;20595;-66
2022/11/12 05:41:25;;;;;;;4.32;2.10;;;5.90;94.10;;;;;;5046311;28;20052;-66
2022/11/12 05:44:10;;;;;;;5.15;2.00;;;5.90;94.10;;;;;;5053920;28;20043;-66
2022/11/12 05:46:54;;;;;;;7.68;2.50;;;6.00;94.10;;;;;;5050006;28;20808;-66
2022/11/12 05:49:39;;;;;;;5.40;2.53;;;5.90;93.60;;;;;;5043783;28;20059;-66
2022/11/12 05:52:23;;;;;;;3.92;2.10;;;5.90;93.10;;;;;;5049637;28;20048;-71
2022/11/12 05:55:08;;;;;;;4.05;1.85;;;5.80;93.20;;;;;;5047415;28;20612;-71
2022/11/12 05:57:52;;;;;;;3.08;1.90;;;5.80;93.60;;;;;;5053453;28;20047;-72
2022/11/12 06:00:39;;;;;;;3.10;1.90;;;5.80;94.20;;;;;;5050168;28;20047;-71
2022/11/12 06:03:24;;;;;;;3.15;2.08;;;5.80;94.70;;;;;;5047924;28;20095;-71
2022/11/12 06:06:08;;;;;;;5.90;2.10;;;5.80;95.00;;;;;;5044126;28;20043;-71
2022/11/12 06:08:53;;;;;;;2.45;1.80;;;5.90;95.20;;;;;;5048452;28;20039;-71
2022/11/12 06:11:37;;;;;;;3.25;2.20;;;6.00;95.20;;;;;;5046832;28;20086;-72
2022/11/12 06:14:22;;;;;;;4.53;2.10;;;6.00;95.30;;;;;;5053497;28;20082;-71
2022/11/12 06:17:06;;;;;;;2.25;1.90;;;6.00;95.40;;;;;;5049167;28;20053;-71
2022/11/12 06:19:50;;;;;;;4.88;2.03;;;6.00;95.30;;;;;;5041831;28;20098;-72
2022/11/12 06:22:35;;;;;;;6.38;2.70;;;6.00;95.30;;;;;;5046236;28;20799;-72
2022/11/12 06:25:19;;;;;;;3.80;2.55;;;6.00;95.10;;;;;;5045434;28;20051;-72
2022/11/12 06:28:03;;;;;;;4.15;2.00;;;6.00;95.10;;;;;;5043278;28;20098;-72
2022/11/12 06:30:47;;;;;;;5.63;2.55;;;6.10;95.00;;;;;;5045312;28;20416;-72
2022/11/12 06:33:32;;;;;;;10.02;2.65;;;6.00;95.00;;;;;;5045935;28;20047;-72
2022/11/12 06:36:18;;;;;;;10.02;2.90;;;6.10;95.10;;;;;;5047379;28;20420;-71
2022/11/12 06:39:02;;;;;;;7.68;3.00;;;6.10;95.10;;;;;;5053684;28;20087;-72
2022/11/12 06:41:47;;;;;;;7.20;3.00;;;6.00;94.50;;;;;;5045763;28;20502;-72
2022/11/12 06:44:31;;;;;;;11.10;3.72;;;6.00;94.10;;;;;;5050187;28;20071;-71
2022/11/12 06:47:15;;;;;;;7.30;3.38;;;6.00;93.80;;;;;;5048049;28;20042;-72
2022/11/12 06:50:01;;;;;;;8.98;3.22;;;5.90;93.60;;;;;;5049124;28;20048;-71
2022/11/12 06:52:45;;;;;;;6.90;3.03;;;5.80;93.80;;;;;;5049682;28;20568;-71
2022/11/12 06:55:29;;;;;;;10.88;3.38;;;5.80;93.90;;;;;;5051637;28;20086;-72
2022/11/12 06:58:14;;;;;;;11.70;3.30;;;5.80;93.90;;;;;;5049599;28;20780;-72
2022/11/12 07:01:03;;;;;;;4.78;2.47;;;5.90;94.20;;;;;;5047328;28;20562;-71
2022/11/12 07:03:51;;;;;;;8.15;2.88;;;5.90;94.60;;;;;;5042152;28;20515;-71
2022/11/12 07:06:36;;;;;;;11.10;3.67;;;5.90;94.90;;;;;;5055123;28;20102;-72
2022/11/12 07:09:20;;;;;;;8.13;2.88;;;6.10;94.60;;;;;;5041639;28;20546;-70
2022/11/12 07:12:05;;;;;;;9.60;3.38;;;6.10;94.30;;;;;;5049049;28;20695;-71
2022/11/12 07:14:49;;;;;;;10.93;2.85;;;6.20;94.20;;;;;;5048785;28;20048;-70
2022/11/12 07:17:34;;;;;;;5.65;2.70;;;6.20;94.50;;;;;;5051842;28;20122;-71
2022/11/12 07:20:18;;;;;;;5.68;2.75;;;6.30;95.00;;;;;;5056203;28;20507;-71
2022/11/12 07:23:03;;;;;;;3.10;2.08;;;6.40;95.40;;;;;;5047217;28;20451;-70
2022/11/12 07:25:54;;;;;;;3.42;1.95;;;6.60;95.80;;;;;;5050550;28;20152;-70
2022/11/12 07:28:38;;;;;;;4.50;1.90;;;6.70;96.00;;;;;;5053962;28;20125;-74
2022/11/12 07:31:24;;;;;;;5.25;2.80;;;6.90;96.30;;;;;;5046534;28;20063;-70
2022/11/12 07:34:09;;;;;;;3.40;2.00;;;7.00;96.10;;;;;;5050105;28;20051;-69
2022/11/12 07:36:53;;;;;;;5.05;2.22;;;7.10;96.00;;;;;;5056401;28;20106;-70
2022/11/12 07:39:37;;;;;;;9.60;3.47;;;7.20;96.00;;;;;;5050246;28;20110;-69
2022/11/12 07:42:22;;;;;;;5.72;2.97;;;7.30;95.70;;;;;;5048323;28;20043;-73
2022/11/12 07:45:07;;;;;;;7.88;3.50;;;7.30;95.40;;;;;;5047177;28;20067;-70
2022/11/12 07:47:51;;;;;;;7.85;3.78;;;7.40;95.20;;;;;;5053122;28;20121;-71
2022/11/12 07:50:35;;;;;;;19.95;9.63;;;7.40;94.80;;;;;;5047005;28;20044;-70
2022/11/12 07:53:20;;;;;;;19.92;8.93;;;7.40;94.60;;;;;;5048270;28;20051;-71
2022/11/12 07:56:04;;;;;;;15.27;7.60;;;7.40;94.20;;;;;;5052062;28;20083;-71
2022/11/12 07:58:49;;;;;;;16.77;8.45;;;7.30;94.20;;;;;;5052124;28;21059;-68
2022/11/12 08:01:38;;;;;;;17.50;8.88;;;7.40;94.20;;;;;;5048774;28;20515;-68
2022/11/12 08:04:23;;;;;;;17.45;9.48;;;7.40;94.10;;;;;;5049906;28;20040;-68
2022/11/12 08:07:07;;;;;;;15.07;7.40;;;7.40;94.10;;;;;;5055454;28;20063;-68
2022/11/12 08:09:53;;;;;;;11.52;5.82;;;7.50;94.30;;;;;;5050712;28;20195;-68
2022/11/12 08:12:37;;;;;;;9.15;4.65;;;7.50;94.50;;;;;;5050421;28;20503;-68
2022/11/12 08:15:21;;;;;;;7.15;4.50;;;7.70;94.30;;;;;;5053590;28;20147;-68
2022/11/12 08:18:06;;;;;;;5.78;3.60;;;7.70;94.50;;;;;;5049375;28;20500;-67
2022/11/12 08:20:50;;;;;;;4.47;3.08;;;7.90;94.50;;;;;;5058840;28;20095;-67
2022/11/12 08:23:35;;;;;;;5.97;3.15;;;8.00;94.70;;;;;;5050365;28;20044;-67
2022/11/12 08:26:20;;;;;;;4.90;3.15;;;8.20;94.80;;;;;;5047474;28;20424;-67
2022/11/12 08:29:04;;;;;;;3.53;2.50;;;8.40;94.70;;;;;;5048915;28;20059;-67
2022/11/12 08:31:49;;;;;;;4.57;2.58;;;8.60;94.60;;;;;;5049920;28;20110;-68
2022/11/12 08:34:35;;;;;;;3.35;2.05;;;8.80;94.40;;;;;;5047491;28;20741;-68
2022/11/12 08:37:19;;;;;;;5.68;2.30;;;9.10;93.80;;;;;;5050736;28;20086;-67
2022/11/12 08:40:04;;;;;;;5.78;2.50;;;9.30;93.30;;;;;;5047019;28;20404;-67
2022/11/12 08:42:55;;;;;;;6.00;2.42;;;9.40;92.60;;;;;;5046902;28;20059;-67
2022/11/12 08:45:40;;;;;;;4.85;3.03;;;9.60;92.30;;;;;;5048831;28;20094;-67
2022/11/12 08:48:25;;;;;;;4.78;2.63;;;9.80;92.10;;;;;;5047691;28;20071;-67
2022/11/12 08:51:10;;;;;;;4.38;2.67;;;10.00;91.50;;;;;;5051539;28;20528;-67
2022/11/12 08:53:55;;;;;;;3.75;2.13;;;10.30;91.20;;;;;;5051967;28;20051;-67
2022/11/12 08:56:39;;;;;;;4.00;2.28;;;10.60;90.70;;;;;;5053623;28;20052;-68
2022/11/12 08:59:23;;;;;;;4.53;2.28;;;11.30;90.00;;;;;;5047770;28;20637;-68
2022/11/12 09:02:12;;;;;;;4.20;2.17;;;12.80;84.50;;;;;;5050000;28;20154;-67
2022/11/12 09:04:56;;;;;;;4.90;2.03;;;14.70;77.20;;;;;;5045163;28;20095;-71
2022/11/12 09:07:40;;;;;;;5.53;2.40;;;16.40;71.20;;;;;;5046885;28;20052;-70
2022/11/12 09:10:25;;;;;;;3.92;1.90;;;17.60;64.30;;;;;;5043886;28;20059;-71
2022/11/12 09:13:10;;;;;;;4.90;1.98;;;18.10;62.70;;;;;;5046782;28;20105;-71
2022/11/12 09:16:03;;;;;;;3.38;1.98;;;19.00;58.30;;;;;;5050291;28;20087;-71
2022/11/12 09:18:47;;;;;;;4.85;2.42;;;20.10;55.50;;;;;;5048950;28;20047;-68
2022/11/12 09:21:32;;;;;;;3.30;2.00;;;20.90;52.30;;;;;;5048407;28;20464;-68
2022/11/12 09:24:16;;;;;;;5.03;2.40;;;21.60;49.80;;;;;;5046702;28;20565;-68
2022/11/12 09:27:00;;;;;;;4.20;2.42;;;22.50;47.80;;;;;;5044986;28;20989;-68
2022/11/12 09:29:45;;;;;;;5.10;2.40;;;23.20;46.40;;;;;;5047785;28;20152;-68
2022/11/12 09:32:29;;;;;;;3.53;2.17;;;23.60;44.90;;;;;;5046249;28;20048;-68
2022/11/12 09:35:14;;;;;;;7.30;3.05;;;23.00;45.40;;;;;;5044490;28;20099;-67
2022/11/12 09:37:58;;;;;;;4.60;2.80;;;21.90;46.80;;;;;;5044300;28;20055;-67
2022/11/12 09:40:52;;;;;;;4.55;2.42;;;20.60;49.90;;;;;;5048729;28;20063;-68
2022/11/12 09:43:52;;;;;;;5.13;2.38;;;19.80;53.30;;;;;;5048886;28;20515;-68
2022/11/12 09:46:43;;;;;;;4.60;2.60;;;19.20;54.70;;;;;;5045042;28;20106;-71
2022/11/12 09:49:32;;;;;;;5.10;2.63;;;18.60;56.20;;;;;;5049886;28;20118;-68
2022/11/12 09:52:27;;;;;;;4.88;2.63;;;18.10;57.70;;;;;;5031422;28;20099;-68
2022/11/12 09:55:35;;;;;;;5.32;3.40;;;17.80;59.00;;;;;;5047955;28;21505;-70
2022/11/12 09:58:19;;;;;;;3.85;2.65;;;17.50;60.20;;;;;;5048569;28;20047;-70
2022/11/12 10:01:37;;;;;;;6.93;3.05;;;17.40;61.20;;;;;;5049390;28;20087;-73
2022/11/12 10:04:49;;;;;;;6.10;3.35;;;17.30;62.20;;;;;;5045838;28;20040;-69
2022/11/12 10:07:49;;;;;;;5.93;3.45;;;17.30;62.60;;;;;;5045813;28;20151;-67
2022/11/12 10:10:48;;;;;;;6.70;2.97;;;17.30;61.80;;;;;;5055985;28;20116;-67
2022/11/12 10:13:42;;;;;;;5.53;3.13;;;17.10;61.60;;;;;;5046022;28;20086;-67
2022/11/12 10:17:12;;;;;;;6.22;3.65;;;16.90;62.10;;;;;;5046136;28;20141;-67
2022/11/12 10:20:14;;;;;;;7.93;4.22;;;16.60;64.30;;;;;;5047140;28;20148;-67
2022/11/12 10:23:05;;;;;;;6.65;4.18;;;16.40;65.80;;;;;;5047182;28;20075;-66
2022/11/12 10:25:51;;;;;;;4.85;3.45;;;16.40;65.70;;;;;;5045390;28;20098;-67
2022/11/12 10:28:44;;;;;;;7.35;3.88;;;16.30;65.60;;;;;;5042176;28;20052;-65
2022/11/12 10:31:28;;;;;;;5.68;3.15;;;16.20;66.50;;;;;;5051147;28;20047;-66
2022/11/12 10:34:13;;;;;;;8.05;4.13;;;16.00;67.90;;;;;;5054166;28;20117;-65
2022/11/12 10:37:04;;;;;;;9.90;4.60;;;16.00;69.00;;;;;;5049816;28;20048;-66
2022/11/12 10:39:49;;;;;;;9.40;4.10;;;15.80;69.80;;;;;;5043664;28;20052;-65
2022/11/12 10:42:33;;;;;;;8.30;4.82;;;15.60;70.20;;;;;;5045050;28;20786;-65
2022/11/12 10:45:20;;;;;;;11.40;5.57;;;15.50;71.50;;;;;;5048647;28;20079;-64
2022/11/12 10:48:19;;;;;;;13.15;6.00;;;15.50;72.40;;;;;;5047748;28;20052;-65
2022/11/12 10:51:37;;;;;;;12.02;5.93;;;15.60;72.20;;;;;;5043141;28;20132;-65
2022/11/12 10:54:37;;;;;;;10.52;5.72;;;15.60;72.70;;;;;;5046259;28;20593;-65
2022/11/12 10:57:26;;;;;;;10.75;5.88;;;15.60;73.30;;;;;;5049522;28;20641;-66
2022/11/12 11:00:15;;;;;;;11.27;5.95;;;15.80;73.30;;;;;;5040706;28;20047;-65
2022/11/12 11:03:02;;;;;;;10.93;6.20;;;15.80;73.10;;;;;;5044143;28;20059;-65
2022/11/12 11:06:20;;;;;;;13.75;6.43;;;15.80;73.60;;;;;;5044826;28;20098;-65
2022/11/12 11:09:15;;;;;;;15.10;6.57;;;15.70;73.70;;;;;;5051036;28;20051;-64
2022/11/12 11:11:59;;;;;;;14.75;7.10;;;15.80;74.10;;;;;;5052532;28;20060;-66
2022/11/12 11:14:44;;;;;;;13.00;7.30;;;15.70;74.00;;;;;;5048198;28;20047;-65
2022/11/12 11:17:28;;;;;;;12.80;7.03;;;15.70;74.10;;;;;;5050103;28;20038;-65
2022/11/12 11:20:34;;;;;;;16.50;7.32;;;15.70;74.90;;;;;;5044506;28;20048;-71
2022/11/12 11:23:41;;;;;;;19.33;9.00;;;15.70;74.50;;;;;;5032142;28;20122;-65
2022/11/12 11:26:37;;;;;;;18.20;8.60;;;15.70;74.80;;;;;;5049381;28;20830;-66
2022/11/12 11:29:49;;;;;;;14.98;8.68;;;15.70;74.60;;;;;;5045364;28;20071;-65
2022/11/12 11:33:14;;;;;;;17.20;8.50;;;15.70;75.00;;;;;;5052088;28;20073;-66
2022/11/12 11:36:17;;;;;;;16.15;8.43;;;15.60;74.80;;;;;;5046456;28;20048;-65
2022/11/12 11:39:44;;;;;;;15.30;8.60;;;15.60;74.70;;;;;;5048167;28;20048;-65
2022/11/12 11:42:47;;;;;;;17.95;8.27;;;15.70;74.80;;;;;;5046436;28;20039;-66
2022/11/12 11:46:05;;;;;;;16.75;7.97;;;15.70;74.00;;;;;;5053660;28;20047;-65
2022/11/12 11:49:28;;;;;;;15.32;7.45;;;15.60;74.00;;;;;;5049261;28;20095;-65
2022/11/12 11:52:12;;;;;;;14.25;7.57;;;15.60;73.80;;;;;;4972153;28;20301;-66
2022/11/12 11:54:59;;;;;;;19.65;8.50;;;15.60;74.30;;;;;;4970995;28;20605;-69
2022/11/12 11:57:59;;;;;;;18.35;9.07;;;15.60;74.80;;;;;;5032880;28;20040;-69
2022/11/12 12:01:10;;;;;;;16.83;8.90;;;15.60;73.70;;;;;;5052492;28;20114;-70
2022/11/12 12:04:13;;;;;;;14.35;7.30;;;15.40;73.60;;;;;;5048211;28;20055;-69
2022/11/12 12:07:23;;;;;;;14.82;7.85;;;15.20;75.10;;;;;;5051291;28;20082;-70
2022/11/12 12:10:10;;;;;;;13.75;6.85;;;15.20;75.60;;;;;;5043836;28;20080;-69
2022/11/12 12:12:59;;;;;;;11.05;6.38;;;15.10;76.40;;;;;;5047571;28;20051;-69
2022/11/12 12:16:05;;;;;;;14.32;7.03;;;15.00;77.20;;;;;;5047922;28;20590;-70
2022/11/12 12:18:54;;;;;;;12.02;5.90;;;14.90;77.80;;;;;;5051494;28;20091;-70
2022/11/12 12:21:43;;;;;;;10.93;5.97;;;14.90;77.90;;;;;;5050642;28;20048;-70
2022/11/12 12:24:51;;;;;;;10.90;5.85;;;14.90;77.60;;;;;;5046826;28;20530;-69
2022/11/12 12:27:44;;;;;;;8.13;5.13;;;14.80;78.90;;;;;;5045586;28;20036;-69
2022/11/12 12:30:30;;;;;;;9.95;5.05;;;14.70;78.80;;;;;;5051685;28;20044;-70
2022/11/12 12:33:23;;;;;;;10.13;5.28;;;14.70;79.20;;;;;;5049147;28;20543;-69
2022/11/12 12:36:09;;;;;;;9.80;5.07;;;14.80;78.90;;;;;;5050320;28;20047;-69
2022/11/12 12:39:11;;;;;;;13.73;5.95;;;14.80;78.80;;;;;;5053488;28;20094;-69
2022/11/12 12:41:59;;;;;;;12.13;5.78;;;14.80;78.90;;;;;;5051091;28;20051;-69
2022/11/12 12:45:00;;;;;;;9.63;5.63;;;14.70;79.00;;;;;;5045842;28;20063;-68
2022/11/12 12:47:46;;;;;;;13.15;6.57;;;14.80;78.90;;;;;;5049311;28;20071;-68
2022/11/12 12:50:31;;;;;;;;;;;14.70;79.20;;;;;;5050995;28;20110;-68
2022/11/12 12:53:26;;;;;;;41.20;20.33;;;14.80;79.30;;;;;;5053611;28;19919;-68
2022/11/12 12:56:13;;;;;;;19.23;8.90;;;14.80;79.10;;;;;;5047052;28;20048;-68
2022/11/12 12:59:02;;;;;;;8.60;5.32;;;14.80;79.70;;;;;;5044216;28;20924;-68
2022/11/12 13:02:21;;;;;;;9.07;4.90;;;14.80;79.80;;;;;;5047702;28;20099;-66
2022/11/12 13:05:05;;;;;;;;;;;14.90;79.50;;;;;;5054038;28;20562;-67
2022/11/12 13:07:50;;;;;;;12.70;3.85;;;14.90;79.30;;;;;;5052855;28;20573;-67
2022/11/12 13:10:38;;;;;;;8.10;4.30;;;14.80;79.90;;;;;;5045069;28;20047;-69
2022/11/12 13:13:25;;;;;;;9.80;4.20;;;14.90;79.40;;;;;;5043282;28;20938;-67
2022/11/12 13:16:10;;;;;;;7.18;4.35;;;14.90;79.00;;;;;;5050539;28;20578;-68
2022/11/12 13:18:55;;;;;;;8.45;4.10;;;14.90;79.40;;;;;;5050448;28;20063;-68
2022/11/12 13:21:43;;;;;;;6.57;3.90;;;14.90;79.10;;;;;;5046537;28;20129;-67
2022/11/12 13:24:59;;;;;;;9.40;4.30;;;14.80;79.10;;;;;;5047932;28;20043;-68
2022/11/12 13:27:43;;;;;;;9.70;4.38;;;14.80;79.30;;;;;;5048801;28;20376;-67
2022/11/12 13:30:27;;;;;;;14.63;6.90;;;14.80;79.10;;;;;;5049021;28;20044;-67
2022/11/12 13:33:25;;;;;;;9.75;4.40;;;14.80;79.50;;;;;;5050899;28;20604;-67
2022/11/12 13:36:24;;;;;;;8.60;3.90;;;14.80;79.60;;;;;;5040972;28;20159;-70
2022/11/12 13:39:18;;;;;;;9.35;4.22;;;14.80;79.80;;;;;;5046891;28;20043;-68
2022/11/12 13:45:22;;;;;;;9.50;3.95;;;14.70;80.10;;;;;;5042650;28;20052;-70
2022/11/12 13:48:12;;;;;;;6.57;3.50;;;14.70;80.30;;;;;;5043348;28;20582;-69
2022/11/12 13:51:26;;;;;;;9.20;4.80;;;14.60;80.70;;;;;;5047244;28;20118;-69
2022/11/12 13:54:34;;;;;;;7.57;4.13;;;14.60;81.00;;;;;;5047496;28;20048;-69
2022/11/12 13:57:18;;;;;;;9.77;5.97;;;14.60;81.30;;;;;;5052804;28;20063;-69
2022/11/12 14:00:20;;;;;;;8.77;4.53;;;14.50;81.40;;;;;;5055005;28;20129;-70
2022/11/12 14:03:06;;;;;;;6.80;4.20;;;14.40;81.30;;;;;;5047262;28;20094;-69
2022/11/12 14:05:52;;;;;;;9.90;4.45;;;14.40;82.00;;;;;;5044833;28;20123;-69
2022/11/12 14:09:08;;;;;;;7.93;4.13;;;14.30;82.20;;;;;;5047361;28;20048;-69
2022/11/12 14:12:08;;;;;;;6.15;3.65;;;14.30;82.60;;;;;;5045200;28;20056;-69
2022/11/12 14:14:58;;;;;;;7.30;3.80;;;14.20;82.80;;;;;;5044272;28;20151;-69
2022/11/12 14:17:54;;;;;;;7.30;3.63;;;14.20;83.40;;;;;;5049031;28;20062;-69
2022/11/12 14:20:39;;;;;;;6.57;3.85;;;14.10;83.70;;;;;;5044948;28;20500;-69
2022/11/12 14:23:25;;;;;;;6.57;3.40;;;14.10;84.00;;;;;;5044618;28;20167;-69
2022/11/12 14:26:12;;;;;;;6.18;3.72;;;14.10;84.30;;;;;;5043801;28;20055;-69
2022/11/12 14:28:56;;;;;;;7.20;3.75;;;14.00;84.80;;;;;;5050943;28;20565;-69
2022/11/12 14:31:40;;;;;;;10.73;5.00;;;13.90;85.00;;;;;;5043675;28;20052;-69
2022/11/12 14:34:31;;;;;;;6.47;3.47;;;13.90;85.50;;;;;;5052120;28;20071;-68
2022/11/12 14:37:37;;;;;;;7.75;4.25;;;13.80;85.90;;;;;;5047833;28;20090;-67
2022/11/12 14:40:23;;;;;;;6.25;3.95;;;13.60;86.50;;;;;;5059409;28;20488;-69
2022/11/12 14:43:28;;;;;;;8.38;4.47;;;13.60;86.60;;;;;;5044519;28;20043;-69
2022/11/12 14:46:28;;;;;;;10.13;3.85;;;13.40;87.40;;;;;;5046146;28;20633;-69
2022/11/12 14:49:26;;;;;;;6.05;3.10;;;13.30;87.80;;;;;;5041787;28;20143;-69
2022/11/12 14:52:17;;;;;;;8.38;4.05;;;13.20;88.30;;;;;;5046388;28;20079;-69
2022/11/12 14:55:15;;;;;;;12.50;5.60;;;13.00;89.00;;;;;;5047438;28;20048;-69
2022/11/12 14:58:01;;;;;;;11.75;6.60;;;12.90;89.60;;;;;;5048044;28;20067;-67
2022/11/12 15:00:48;;;;;;;14.98;7.95;;;12.80;90.00;;;;;;5048650;28;20823;-68
2022/11/12 15:03:32;;;;;;;19.48;9.20;;;12.70;90.20;;;;;;5040305;28;20543;-68
2022/11/12 15:06:30;;;;;;;26.05;11.80;;;12.60;90.40;;;;;;5047328;28;20060;-67
2022/11/12 15:09:17;;;;;;;;;;;12.50;90.70;;;;;;5049290;28;20074;-68
2022/11/12 15:12:11;;;;;;;23.23;9.85;;;12.40;90.80;;;;;;5048846;28;19959;-68